sensor_id;sensor_type;location;lat;lon;timestamp;temperature;humidity
15656;DHT22;7928;43.614;1.456;2023-02-28T00:00:24;2.90;1.00
15656;DHT22;7928;43.614;1.456;2023-02-28T00:02:51;2.90;1.00
15656;DHT22;7928;43.614;1.456;2023-02-28T00:05:20;2.90;1.00
15656;DHT22;7928;43.614;1.456;2023-02-28T00:07:48;2.90;1.00
15656;DHT22;7928;43.614;1.456;2023-02-28T00:10:17;3.00;1.00
15656;DHT22;7928;43.614;1.456;2023-02-28T00:12:46;2.90;1.00
15656;DHT22;7928;43.614;1.456;2023-02-28T00:15:15;2.90;1.00
15656;DHT22;7928;43.614;1.456;2023-02-28T00:17:42;2.80;1.00
15656;DHT22;7928;43.614;1.456;2023-02-28T00:20:11;2.80;1.00
15656;DHT22;7928;43.614;1.456;2023-02-28T00:22:39;2.80;1.00
15656;DHT22;7928;43.614;1.456;2023-02-28T00:25:08;2.70;1.00
15656;DHT22;7928;43.614;1.456;2023-02-28T00:27:37;2.70;1.00
15656;DHT22;7928;43.614;1.456;2023-02-28T00:30:07;2.70;1.00
15656;DHT22;7928;43.614;1.456;2023-02-28T00:32:36;2.80;1.00
15656;DHT22;7928;43.614;1.456;2023-02-28T00:35:03;2.80;1.00
15656;DHT22;7928;43.614;1.456;2023-02-28T00:37:30;2.60;1.00
15656;DHT22;7928;43.614;1.456;2023-02-28T00:39:58;2.70;1.00
15656;DHT22;7928;43.614;1.456;2023-02-28T00:42:25;2.60;1.00
15656;DHT22;7928;43.614;1.456;2023-02-28T00:45:16;2.60;1.00
15656;DHT22;7928;43.614;1.456;2023-02-28T00:47:46;2.50;1.00
15656;DHT22;7928;43.614;1.456;2023-02-28T00:50:16;2.50;1.00
15656;DHT22;7928;43.614;1.456;2023-02-28T00:52:43;2.50;1.00
15656;DHT22;7928;43.614;1.456;2023-02-28T00:55:10;2.40;1.00
15656;DHT22;7928;43.614;1.456;2023-02-28T00:57:38;2.40;1.00
15656;DHT22;7928;43.614;1.456;2023-02-28T01:00:07;2.40;1.00
15656;DHT22;7928;43.614;1.456;2023-02-28T01:02:34;2.40;1.00
15656;DHT22;7928;43.614;1.456;2023-02-28T01:05:03;2.50;1.00
15656;DHT22;7928;43.614;1.456;2023-02-28T01:07:30;2.40;1.00
15656;DHT22;7928;43.614;1.456;2023-02-28T01:09:57;2.50;1.00
15656;DHT22;7928;43.614;1.456;2023-02-28T01:12:24;2.50;1.00
15656;DHT22;7928;43.614;1.456;2023-02-28T01:14:51;2.50;1.00
15656;DHT22;7928;43.614;1.456;2023-02-28T01:17:18;2.60;1.00
15656;DHT22;7928;43.614;1.456;2023-02-28T01:19:45;2.60;1.00
15656;DHT22;7928;43.614;1.456;2023-02-28T01:22:14;2.50;1.00
15656;DHT22;7928;43.614;1.456;2023-02-28T01:24:41;2.50;1.00
15656;DHT22;7928;43.614;1.456;2023-02-28T01:27:08;2.60;1.00
15656;DHT22;7928;43.614;1.456;2023-02-28T01:29:35;2.60;1.00
15656;DHT22;7928;43.614;1.456;2023-02-28T01:32:02;2.60;1.00
15656;DHT22;7928;43.614;1.456;2023-02-28T01:34:29;2.50;1.00
15656;DHT22;7928;43.614;1.456;2023-02-28T01:36:56;2.50;1.00
15656;DHT22;7928;43.614;1.456;2023-02-28T01:39:25;2.50;1.00
15656;DHT22;7928;43.614;1.456;2023-02-28T01:41:52;2.50;1.00
15656;DHT22;7928;43.614;1.456;2023-02-28T01:45:01;2.50;1.00
15656;DHT22;7928;43.614;1.456;2023-02-28T01:47:31;2.50;1.00
15656;DHT22;7928;43.614;1.456;2023-02-28T01:50:02;2.50;1.00
15656;DHT22;7928;43.614;1.456;2023-02-28T01:52:30;2.50;1.00
15656;DHT22;7928;43.614;1.456;2023-02-28T01:55:01;2.50;1.00
15656;DHT22;7928;43.614;1.456;2023-02-28T01:57:32;2.50;1.00
15656;DHT22;7928;43.614;1.456;2023-02-28T02:00:06;2.40;1.00
15656;DHT22;7928;43.614;1.456;2023-02-28T02:02:36;2.50;1.00
15656;DHT22;7928;43.614;1.456;2023-02-28T02:05:05;2.50;1.00
15656;DHT22;7928;43.614;1.456;2023-02-28T02:07:35;2.50;1.00
15656;DHT22;7928;43.614;1.456;2023-02-28T02:10:12;2.50;1.00
15656;DHT22;7928;43.614;1.456;2023-02-28T02:13:11;2.50;1.00
15656;DHT22;7928;43.614;1.456;2023-02-28T02:15:44;2.50;1.00
15656;DHT22;7928;43.614;1.456;2023-02-28T02:18:25;2.50;1.00
15656;DHT22;7928;43.614;1.456;2023-02-28T02:33:06;2.60;1.00
15656;DHT22;7928;43.614;1.456;2023-02-28T02:35:43;2.60;1.00
15656;DHT22;7928;43.614;1.456;2023-02-28T02:38:18;2.60;1.00
15656;DHT22;7928;43.614;1.456;2023-02-28T02:40:58;2.60;1.00
15656;DHT22;7928;43.614;1.456;2023-02-28T02:43:34;2.60;1.00
15656;DHT22;7928;43.614;1.456;2023-02-28T02:46:05;2.60;1.00
15656;DHT22;7928;43.614;1.456;2023-02-28T02:48:34;2.60;1.00
15656;DHT22;7928;43.614;1.456;2023-02-28T02:51:07;2.70;1.00
15656;DHT22;7928;43.614;1.456;2023-02-28T02:53:42;2.80;1.00
15656;DHT22;7928;43.614;1.456;2023-02-28T02:56:12;2.80;1.00
15656;DHT22;7928;43.614;1.456;2023-02-28T02:58:42;2.80;1.00
15656;DHT22;7928;43.614;1.456;2023-02-28T03:01:14;2.80;1.00
15656;DHT22;7928;43.614;1.456;2023-02-28T03:03:43;2.80;1.00
15656;DHT22;7928;43.614;1.456;2023-02-28T03:06:14;2.80;1.00
15656;DHT22;7928;43.614;1.456;2023-02-28T03:08:41;2.80;1.00
15656;DHT22;7928;43.614;1.456;2023-02-28T03:11:13;2.80;1.00
15656;DHT22;7928;43.614;1.456;2023-02-28T03:13:59;2.80;1.00
15656;DHT22;7928;43.614;1.456;2023-02-28T03:16:34;2.80;1.00
15656;DHT22;7928;43.614;1.456;2023-02-28T03:19:38;2.80;1.00
15656;DHT22;7928;43.614;1.456;2023-02-28T03:25:17;2.70;1.00
15656;DHT22;7928;43.614;1.456;2023-02-28T03:27:53;2.70;1.00
15656;DHT22;7928;43.614;1.456;2023-02-28T03:30:26;2.80;1.00
15656;DHT22;7928;43.614;1.456;2023-02-28T03:32:58;2.80;1.00
15656;DHT22;7928;43.614;1.456;2023-02-28T03:35:30;2.80;1.00
15656;DHT22;7928;43.614;1.456;2023-02-28T03:38:05;2.80;1.00
15656;DHT22;7928;43.614;1.456;2023-02-28T03:40:46;2.70;1.00
15656;DHT22;7928;43.614;1.456;2023-02-28T03:43:19;2.70;1.00
15656;DHT22;7928;43.614;1.456;2023-02-28T03:45:50;2.60;1.00
15656;DHT22;7928;43.614;1.456;2023-02-28T03:48:21;2.60;1.00
15656;DHT22;7928;43.614;1.456;2023-02-28T03:50:50;2.70;1.00
15656;DHT22;7928;43.614;1.456;2023-02-28T03:53:25;2.70;1.00
15656;DHT22;7928;43.614;1.456;2023-02-28T03:55:56;2.60;1.00
15656;DHT22;7928;43.614;1.456;2023-02-28T03:58:28;2.60;1.00
15656;DHT22;7928;43.614;1.456;2023-02-28T04:01:00;2.60;1.00
15656;DHT22;7928;43.614;1.456;2023-02-28T04:03:36;2.60;1.00
15656;DHT22;7928;43.614;1.456;2023-02-28T04:06:04;2.60;1.00
15656;DHT22;7928;43.614;1.456;2023-02-28T04:08:33;2.50;1.00
15656;DHT22;7928;43.614;1.456;2023-02-28T04:11:04;2.50;1.00
15656;DHT22;7928;43.614;1.456;2023-02-28T04:13:32;2.50;1.00
15656;DHT22;7928;43.614;1.456;2023-02-28T04:15:59;2.40;1.00
15656;DHT22;7928;43.614;1.456;2023-02-28T04:18:26;2.40;1.00
15656;DHT22;7928;43.614;1.456;2023-02-28T04:20:53;2.50;1.00
15656;DHT22;7928;43.614;1.456;2023-02-28T04:23:20;2.40;1.00
15656;DHT22;7928;43.614;1.456;2023-02-28T04:25:48;2.40;1.00
15656;DHT22;7928;43.614;1.456;2023-02-28T04:28:16;2.50;1.00
15656;DHT22;7928;43.614;1.456;2023-02-28T04:30:43;2.40;1.00
15656;DHT22;7928;43.614;1.456;2023-02-28T04:33:10;2.40;1.00
15656;DHT22;7928;43.614;1.456;2023-02-28T04:35:37;2.40;1.00
15656;DHT22;7928;43.614;1.456;2023-02-28T04:38:04;2.40;1.00
15656;DHT22;7928;43.614;1.456;2023-02-28T04:40:31;2.30;1.00
15656;DHT22;7928;43.614;1.456;2023-02-28T04:43:00;2.30;1.00
15656;DHT22;7928;43.614;1.456;2023-02-28T04:45:27;2.20;1.00
15656;DHT22;7928;43.614;1.456;2023-02-28T04:47:55;2.20;1.00
15656;DHT22;7928;43.614;1.456;2023-02-28T04:50:22;2.20;1.00
15656;DHT22;7928;43.614;1.456;2023-02-28T04:52:49;2.10;1.60
15656;DHT22;7928;43.614;1.456;2023-02-28T04:55:16;2.10;2.80
15656;DHT22;7928;43.614;1.456;2023-02-28T04:57:43;2.10;3.70
15656;DHT22;7928;43.614;1.456;2023-02-28T05:00:13;2.00;5.30
15656;DHT22;7928;43.614;1.456;2023-02-28T05:02:42;2.00;8.40
15656;DHT22;7928;43.614;1.456;2023-02-28T05:05:09;2.00;11.90
15656;DHT22;7928;43.614;1.456;2023-02-28T05:07:37;1.90;14.90
15656;DHT22;7928;43.614;1.456;2023-02-28T05:10:05;1.90;17.50
15656;DHT22;7928;43.614;1.456;2023-02-28T05:12:32;1.80;19.00
15656;DHT22;7928;43.614;1.456;2023-02-28T05:14:59;1.80;21.30
15656;DHT22;7928;43.614;1.456;2023-02-28T05:17:29;1.80;23.10
15656;DHT22;7928;43.614;1.456;2023-02-28T05:19:56;1.80;24.80
15656;DHT22;7928;43.614;1.456;2023-02-28T05:22:23;1.70;26.20
15656;DHT22;7928;43.614;1.456;2023-02-28T05:24:50;1.70;28.20
15656;DHT22;7928;43.614;1.456;2023-02-28T05:27:17;1.70;29.60
15656;DHT22;7928;43.614;1.456;2023-02-28T05:29:44;1.70;32.90
15656;DHT22;7928;43.614;1.456;2023-02-28T05:32:11;1.60;36.60
15656;DHT22;7928;43.614;1.456;2023-02-28T05:34:40;1.60;38.60
15656;DHT22;7928;43.614;1.456;2023-02-28T05:37:11;1.60;41.60
15656;DHT22;7928;43.614;1.456;2023-02-28T05:39:39;1.60;42.60
15656;DHT22;7928;43.614;1.456;2023-02-28T05:42:06;1.50;44.70
15656;DHT22;7928;43.614;1.456;2023-02-28T05:44:35;1.50;47.10
15656;DHT22;7928;43.614;1.456;2023-02-28T05:47:02;1.50;48.50
15656;DHT22;7928;43.614;1.456;2023-02-28T05:49:29;1.50;48.60
15656;DHT22;7928;43.614;1.456;2023-02-28T05:51:57;1.50;51.30
15656;DHT22;7928;43.614;1.456;2023-02-28T05:54:24;1.50;52.90
15656;DHT22;7928;43.614;1.456;2023-02-28T05:56:51;1.50;54.40
15656;DHT22;7928;43.614;1.456;2023-02-28T05:59:18;1.50;55.90
15656;DHT22;7928;43.614;1.456;2023-02-28T06:01:46;1.40;56.30
15656;DHT22;7928;43.614;1.456;2023-02-28T06:04:16;1.40;59.50
15656;DHT22;7928;43.614;1.456;2023-02-28T06:06:44;1.40;60.00
15656;DHT22;7928;43.614;1.456;2023-02-28T06:09:13;1.30;60.00
15656;DHT22;7928;43.614;1.456;2023-02-28T06:11:40;1.30;67.40
15656;DHT22;7928;43.614;1.456;2023-02-28T06:14:09;1.30;68.20
15656;DHT22;7928;43.614;1.456;2023-02-28T06:16:39;1.30;71.60
15656;DHT22;7928;43.614;1.456;2023-02-28T06:19:07;1.30;73.50
15656;DHT22;7928;43.614;1.456;2023-02-28T06:21:34;1.30;75.10
15656;DHT22;7928;43.614;1.456;2023-02-28T06:24:01;1.20;74.50
15656;DHT22;7928;43.614;1.456;2023-02-28T06:26:30;1.20;77.10
15656;DHT22;7928;43.614;1.456;2023-02-28T06:28:57;1.10;77.80
15656;DHT22;7928;43.614;1.456;2023-02-28T06:31:26;1.10;81.00
15656;DHT22;7928;43.614;1.456;2023-02-28T06:33:54;1.20;79.90
15656;DHT22;7928;43.614;1.456;2023-02-28T06:36:22;1.20;81.50
15656;DHT22;7928;43.614;1.456;2023-02-28T06:38:49;0.90;81.20
15656;DHT22;7928;43.614;1.456;2023-02-28T06:41:20;1.20;79.70
15656;DHT22;7928;43.614;1.456;2023-02-28T06:43:50;1.20;78.10
15656;DHT22;7928;43.614;1.456;2023-02-28T06:46:17;1.20;78.40
15656;DHT22;7928;43.614;1.456;2023-02-28T06:48:44;1.30;77.80
15656;DHT22;7928;43.614;1.456;2023-02-28T06:51:14;1.30;76.50
15656;DHT22;7928;43.614;1.456;2023-02-28T06:53:41;1.40;78.80
15656;DHT22;7928;43.614;1.456;2023-02-28T06:56:11;1.40;75.70
15656;DHT22;7928;43.614;1.456;2023-02-28T06:58:39;1.40;72.50
15656;DHT22;7928;43.614;1.456;2023-02-28T07:01:08;1.50;71.70
15656;DHT22;7928;43.614;1.456;2023-02-28T07:03:35;1.40;67.40
15656;DHT22;7928;43.614;1.456;2023-02-28T07:06:04;1.50;69.50
15656;DHT22;7928;43.614;1.456;2023-02-28T07:08:31;1.50;64.50
15656;DHT22;7928;43.614;1.456;2023-02-28T07:10:59;1.50;63.70
15656;DHT22;7928;43.614;1.456;2023-02-28T07:13:26;1.60;59.40
15656;DHT22;7928;43.614;1.456;2023-02-28T07:15:54;1.60;57.00
15656;DHT22;7928;43.614;1.456;2023-02-28T07:18:22;2.50;57.10
15656;DHT22;7928;43.614;1.456;2023-02-28T07:20:49;1.70;52.40
15656;DHT22;7928;43.614;1.456;2023-02-28T07:23:17;1.70;44.70
15656;DHT22;7928;43.614;1.456;2023-02-28T07:25:44;1.80;47.20
15656;DHT22;7928;43.614;1.456;2023-02-28T07:28:12;1.70;41.80
15656;DHT22;7928;43.614;1.456;2023-02-28T07:30:39;1.80;44.90
15656;DHT22;7928;43.614;1.456;2023-02-28T07:33:07;2.20;44.20
15656;DHT22;7928;43.614;1.456;2023-02-28T07:35:35;1.80;40.90
15656;DHT22;7928;43.614;1.456;2023-02-28T07:38:03;1.90;40.30
15656;DHT22;7928;43.614;1.456;2023-02-28T07:40:30;1.90;37.70
15656;DHT22;7928;43.614;1.456;2023-02-28T07:42:59;2.00;34.50
15656;DHT22;7928;43.614;1.456;2023-02-28T07:45:27;2.00;32.20
15656;DHT22;7928;43.614;1.456;2023-02-28T07:47:55;2.10;27.50
15656;DHT22;7928;43.614;1.456;2023-02-28T07:50:22;2.20;26.60
15656;DHT22;7928;43.614;1.456;2023-02-28T07:52:51;2.30;24.60
15656;DHT22;7928;43.614;1.456;2023-02-28T07:55:18;2.40;17.20
15656;DHT22;7928;43.614;1.456;2023-02-28T07:57:45;2.50;17.30
15656;DHT22;7928;43.614;1.456;2023-02-28T08:00:13;2.70;11.50
15656;DHT22;7928;43.614;1.456;2023-02-28T08:02:40;2.70;4.10
15656;DHT22;7928;43.614;1.456;2023-02-28T08:05:08;2.90;1.00
15656;DHT22;7928;43.614;1.456;2023-02-28T08:07:35;3.00;1.00
15656;DHT22;7928;43.614;1.456;2023-02-28T08:10:04;3.10;1.00
15656;DHT22;7928;43.614;1.456;2023-02-28T08:12:32;3.20;1.00
15656;DHT22;7928;43.614;1.456;2023-02-28T08:14:59;3.30;1.00
15656;DHT22;7928;43.614;1.456;2023-02-28T08:17:26;3.40;1.00
15656;DHT22;7928;43.614;1.456;2023-02-28T08:19:53;3.40;1.00
15656;DHT22;7928;43.614;1.456;2023-02-28T08:22:20;3.50;1.00
15656;DHT22;7928;43.614;1.456;2023-02-28T08:24:47;3.60;1.00
15656;DHT22;7928;43.614;1.456;2023-02-28T08:27:16;3.60;1.00
15656;DHT22;7928;43.614;1.456;2023-02-28T08:29:43;3.70;1.00
15656;DHT22;7928;43.614;1.456;2023-02-28T08:32:10;3.70;1.00
15656;DHT22;7928;43.614;1.456;2023-02-28T08:34:39;3.70;1.00
15656;DHT22;7928;43.614;1.456;2023-02-28T08:37:06;4.00;1.00
15656;DHT22;7928;43.614;1.456;2023-02-28T08:39:34;4.20;1.00
15656;DHT22;7928;43.614;1.456;2023-02-28T08:42:01;4.30;99.90
15656;DHT22;7928;43.614;1.456;2023-02-28T08:44:30;4.40;99.90
15656;DHT22;7928;43.614;1.456;2023-02-28T08:46:57;4.60;99.90
15656;DHT22;7928;43.614;1.456;2023-02-28T08:49:24;4.70;99.90
15656;DHT22;7928;43.614;1.456;2023-02-28T08:51:51;4.90;99.90
15656;DHT22;7928;43.614;1.456;2023-02-28T08:54:19;5.10;99.90
15656;DHT22;7928;43.614;1.456;2023-02-28T08:56:47;4.90;99.90
15656;DHT22;7928;43.614;1.456;2023-02-28T08:59:14;4.90;99.90
15656;DHT22;7928;43.614;1.456;2023-02-28T09:01:43;5.10;99.90
15656;DHT22;7928;43.614;1.456;2023-02-28T09:04:10;5.30;99.90
15656;DHT22;7928;43.614;1.456;2023-02-28T09:06:38;5.30;99.90
15656;DHT22;7928;43.614;1.456;2023-02-28T09:09:05;5.30;99.90
15656;DHT22;7928;43.614;1.456;2023-02-28T09:11:33;5.50;99.90
15656;DHT22;7928;43.614;1.456;2023-02-28T09:14:01;5.60;99.90
15656;DHT22;7928;43.614;1.456;2023-02-28T09:16:29;5.60;99.90
15656;DHT22;7928;43.614;1.456;2023-02-28T09:18:58;5.50;99.90
15656;DHT22;7928;43.614;1.456;2023-02-28T09:21:26;5.60;99.90
15656;DHT22;7928;43.614;1.456;2023-02-28T09:23:53;5.60;99.90
15656;DHT22;7928;43.614;1.456;2023-02-28T09:26:22;5.70;99.90
15656;DHT22;7928;43.614;1.456;2023-02-28T09:28:50;5.40;99.90
15656;DHT22;7928;43.614;1.456;2023-02-28T09:31:19;5.40;99.90
15656;DHT22;7928;43.614;1.456;2023-02-28T09:33:47;5.20;99.90
15656;DHT22;7928;43.614;1.456;2023-02-28T09:36:16;5.40;99.90
15656;DHT22;7928;43.614;1.456;2023-02-28T09:38:43;5.70;99.90
15656;DHT22;7928;43.614;1.456;2023-02-28T09:41:14;6.00;99.90
15656;DHT22;7928;43.614;1.456;2023-02-28T09:43:44;6.30;99.90
15656;DHT22;7928;43.614;1.456;2023-02-28T09:46:22;6.50;99.90
15656;DHT22;7928;43.614;1.456;2023-02-28T09:48:51;6.40;99.90
15656;DHT22;7928;43.614;1.456;2023-02-28T09:51:36;6.40;99.90
15656;DHT22;7928;43.614;1.456;2023-02-28T09:54:05;6.70;99.90
15656;DHT22;7928;43.614;1.456;2023-02-28T09:56:36;6.60;99.90
15656;DHT22;7928;43.614;1.456;2023-02-28T09:59:11;7.00;99.90
15656;DHT22;7928;43.614;1.456;2023-02-28T10:01:45;7.20;99.90
15656;DHT22;7928;43.614;1.456;2023-02-28T10:04:32;7.20;99.90
15656;DHT22;7928;43.614;1.456;2023-02-28T10:07:11;7.30;99.90
15656;DHT22;7928;43.614;1.456;2023-02-28T10:09:47;7.80;99.90
15656;DHT22;7928;43.614;1.456;2023-02-28T10:12:20;8.30;99.90
15656;DHT22;7928;43.614;1.456;2023-02-28T10:14:50;8.50;99.90
15656;DHT22;7928;43.614;1.456;2023-02-28T10:17:21;8.60;99.90
15656;DHT22;7928;43.614;1.456;2023-02-28T10:19:58;8.80;99.90
15656;DHT22;7928;43.614;1.456;2023-02-28T10:22:31;9.30;99.90
15656;DHT22;7928;43.614;1.456;2023-02-28T10:25:00;9.80;99.90
15656;DHT22;7928;43.614;1.456;2023-02-28T10:27:30;10.00;99.90
15656;DHT22;7928;43.614;1.456;2023-02-28T10:29:59;8.60;99.90
15656;DHT22;7928;43.614;1.456;2023-02-28T10:32:29;8.20;99.90
15656;DHT22;7928;43.614;1.456;2023-02-28T10:35:00;8.00;99.90
15656;DHT22;7928;43.614;1.456;2023-02-28T10:37:29;7.70;99.90
15656;DHT22;7928;43.614;1.456;2023-02-28T10:39:57;8.70;99.90
15656;DHT22;7928;43.614;1.456;2023-02-28T10:42:26;8.80;99.90
15656;DHT22;7928;43.614;1.456;2023-02-28T10:45:17;8.30;99.90
15656;DHT22;7928;43.614;1.456;2023-02-28T10:47:53;8.00;99.90
15656;DHT22;7928;43.614;1.456;2023-02-28T10:50:36;8.30;99.90
15656;DHT22;7928;43.614;1.456;2023-02-28T10:53:28;8.30;99.90
15656;DHT22;7928;43.614;1.456;2023-02-28T10:55:59;8.60;99.90
15656;DHT22;7928;43.614;1.456;2023-02-28T10:58:29;9.10;99.90
15656;DHT22;7928;43.614;1.456;2023-02-28T11:00:57;9.00;99.90
15656;DHT22;7928;43.614;1.456;2023-02-28T11:03:30;8.70;99.90
15656;DHT22;7928;43.614;1.456;2023-02-28T11:05:58;8.30;99.90
15656;DHT22;7928;43.614;1.456;2023-02-28T11:08:26;8.00;99.90
15656;DHT22;7928;43.614;1.456;2023-02-28T11:10:55;8.30;99.90
15656;DHT22;7928;43.614;1.456;2023-02-28T11:13:27;8.20;99.90
15656;DHT22;7928;43.614;1.456;2023-02-28T11:15:56;8.70;99.90
15656;DHT22;7928;43.614;1.456;2023-02-28T11:18:28;9.10;99.90
15656;DHT22;7928;43.614;1.456;2023-02-28T11:20:57;9.20;99.90
15656;DHT22;7928;43.614;1.456;2023-02-28T11:23:29;8.40;99.90
15656;DHT22;7928;43.614;1.456;2023-02-28T11:26:00;8.00;99.90
15656;DHT22;7928;43.614;1.456;2023-02-28T11:28:30;7.80;99.90
15656;DHT22;7928;43.614;1.456;2023-02-28T11:31:09;7.70;99.90
15656;DHT22;7928;43.614;1.456;2023-02-28T11:33:42;7.90;99.90
15656;DHT22;7928;43.614;1.456;2023-02-28T11:36:13;8.60;99.90
15656;DHT22;7928;43.614;1.456;2023-02-28T11:38:42;11.90;99.90
15656;DHT22;7928;43.614;1.456;2023-02-28T11:41:37;12.20;99.10
15656;DHT22;7928;43.614;1.456;2023-02-28T11:44:29;12.60;99.10
15656;DHT22;7928;43.614;1.456;2023-02-28T11:47:02;11.70;98.30
15656;DHT22;7928;43.614;1.456;2023-02-28T11:49:35;10.90;99.00
15656;DHT22;7928;43.614;1.456;2023-02-28T11:52:15;11.00;99.40
15656;DHT22;7928;43.614;1.456;2023-02-28T11:58:11;15.40;91.20
15656;DHT22;7928;43.614;1.456;2023-02-28T12:01:03;15.50;88.10
15656;DHT22;7928;43.614;1.456;2023-02-28T12:03:42;16.10;85.00
15656;DHT22;7928;43.614;1.456;2023-02-28T12:06:18;16.40;83.60
15656;DHT22;7928;43.614;1.456;2023-02-28T12:08:55;17.20;78.80
15656;DHT22;7928;43.614;1.456;2023-02-28T12:11:38;18.40;76.70
15656;DHT22;7928;43.614;1.456;2023-02-28T12:17:38;17.40;67.10
15656;DHT22;7928;43.614;1.456;2023-02-28T12:20:17;16.40;70.20
15656;DHT22;7928;43.614;1.456;2023-02-28T12:22:53;15.10;69.50
15656;DHT22;7928;43.614;1.456;2023-02-28T12:25:49;14.20;70.70
15656;DHT22;7928;43.614;1.456;2023-02-28T12:28:21;16.70;72.00
15656;DHT22;7928;43.614;1.456;2023-02-28T12:30:54;17.00;68.70
15656;DHT22;7928;43.614;1.456;2023-02-28T12:33:28;15.80;68.20
15656;DHT22;7928;43.614;1.456;2023-02-28T12:35:57;14.00;71.20
15656;DHT22;7928;43.614;1.456;2023-02-28T12:38:27;13.30;73.70
15656;DHT22;7928;43.614;1.456;2023-02-28T12:40:58;13.50;75.00
15656;DHT22;7928;43.614;1.456;2023-02-28T12:43:32;14.00;75.00
15656;DHT22;7928;43.614;1.456;2023-02-28T12:46:04;14.30;75.50
15656;DHT22;7928;43.614;1.456;2023-02-28T12:48:39;13.40;75.00
15656;DHT22;7928;43.614;1.456;2023-02-28T12:51:07;12.60;77.90
15656;DHT22;7928;43.614;1.456;2023-02-28T12:53:47;12.40;79.00
15656;DHT22;7928;43.614;1.456;2023-02-28T12:56:19;12.30;80.30
15656;DHT22;7928;43.614;1.456;2023-02-28T12:58:53;11.40;79.70
15656;DHT22;7928;43.614;1.456;2023-02-28T13:01:37;11.10;81.10
15656;DHT22;7928;43.614;1.456;2023-02-28T13:04:28;11.00;82.40
15656;DHT22;7928;43.614;1.456;2023-02-28T13:07:12;10.60;82.40
15656;DHT22;7928;43.614;1.456;2023-02-28T13:09:41;10.10;82.30
15656;DHT22;7928;43.614;1.456;2023-02-28T13:12:18;10.00;83.40
15656;DHT22;7928;43.614;1.456;2023-02-28T13:14:47;10.10;84.20
15656;DHT22;7928;43.614;1.456;2023-02-28T13:17:19;10.40;84.50
15656;DHT22;7928;43.614;1.456;2023-02-28T13:19:57;10.80;84.90
15656;DHT22;7928;43.614;1.456;2023-02-28T13:22:44;10.90;84.20
15656;DHT22;7928;43.614;1.456;2023-02-28T13:34:15;8.90;83.70
15656;DHT22;7928;43.614;1.456;2023-02-28T13:36:42;8.80;84.40
15656;DHT22;7928;43.614;1.456;2023-02-28T13:39:47;9.00;83.90
15656;DHT22;7928;43.614;1.456;2023-02-28T13:42:33;9.50;85.60
15656;DHT22;7928;43.614;1.456;2023-02-28T13:45:26;11.10;83.20
15656;DHT22;7928;43.614;1.456;2023-02-28T13:47:58;11.90;81.40
15656;DHT22;7928;43.614;1.456;2023-02-28T13:50:34;12.40;80.30
15656;DHT22;7928;43.614;1.456;2023-02-28T13:53:47;11.80;77.10
15656;DHT22;7928;43.614;1.456;2023-02-28T13:56:27;11.80;77.40
15656;DHT22;7928;43.614;1.456;2023-02-28T13:59:03;11.90;75.60
15656;DHT22;7928;43.614;1.456;2023-02-28T14:01:55;13.60;74.20
15656;DHT22;7928;43.614;1.456;2023-02-28T14:04:54;15.70;71.90
15656;DHT22;7928;43.614;1.456;2023-02-28T14:07:26;17.00;66.70
15656;DHT22;7928;43.614;1.456;2023-02-28T14:09:58;15.20;67.10
15656;DHT22;7928;43.614;1.456;2023-02-28T14:13:03;13.20;68.00
15656;DHT22;7928;43.614;1.456;2023-02-28T14:15:57;12.60;71.30
15656;DHT22;7928;43.614;1.456;2023-02-28T14:18:28;12.20;72.00
15656;DHT22;7928;43.614;1.456;2023-02-28T14:21:14;11.20;73.00
15656;DHT22;7928;43.614;1.456;2023-02-28T14:27:04;10.90;77.50
15656;DHT22;7928;43.614;1.456;2023-02-28T14:30:03;10.30;79.40
15656;DHT22;7928;43.614;1.456;2023-02-28T14:32:41;10.20;80.40
15656;DHT22;7928;43.614;1.456;2023-02-28T14:35:22;10.20;81.20
15656;DHT22;7928;43.614;1.456;2023-02-28T14:37:55;10.60;81.10
15656;DHT22;7928;43.614;1.456;2023-02-28T14:40:34;10.80;80.40
15656;DHT22;7928;43.614;1.456;2023-02-28T14:43:03;12.70;77.30
15656;DHT22;7928;43.614;1.456;2023-02-28T14:45:32;11.70;74.40
15656;DHT22;7928;43.614;1.456;2023-02-28T14:48:01;10.50;76.20
15656;DHT22;7928;43.614;1.456;2023-02-28T14:50:31;10.00;76.50
15656;DHT22;7928;43.614;1.456;2023-02-28T14:53:01;10.00;78.20
15656;DHT22;7928;43.614;1.456;2023-02-28T14:55:30;10.40;77.10
15656;DHT22;7928;43.614;1.456;2023-02-28T14:57:59;10.10;76.70
15656;DHT22;7928;43.614;1.456;2023-02-28T15:00:30;9.90;77.20
15656;DHT22;7928;43.614;1.456;2023-02-28T15:02:59;9.60;77.10
15656;DHT22;7928;43.614;1.456;2023-02-28T15:05:28;9.30;78.20
15656;DHT22;7928;43.614;1.456;2023-02-28T15:08:06;9.00;79.20
15656;DHT22;7928;43.614;1.456;2023-02-28T15:10:37;9.10;80.30
15656;DHT22;7928;43.614;1.456;2023-02-28T15:13:07;9.20;79.20
15656;DHT22;7928;43.614;1.456;2023-02-28T15:15:42;9.00;79.30
15656;DHT22;7928;43.614;1.456;2023-02-28T15:18:16;9.00;80.00
15656;DHT22;7928;43.614;1.456;2023-02-28T15:20:44;8.80;79.20
15656;DHT22;7928;43.614;1.456;2023-02-28T15:23:12;8.30;79.70
15656;DHT22;7928;43.614;1.456;2023-02-28T15:25:41;8.40;81.50
15656;DHT22;7928;43.614;1.456;2023-02-28T15:28:15;8.40;81.90
15656;DHT22;7928;43.614;1.456;2023-02-28T15:30:52;8.40;81.90
15656;DHT22;7928;43.614;1.456;2023-02-28T15:33:22;8.50;82.20
15656;DHT22;7928;43.614;1.456;2023-02-28T15:35:50;8.60;83.00
15656;DHT22;7928;43.614;1.456;2023-02-28T15:38:23;8.80;83.40
15656;DHT22;7928;43.614;1.456;2023-02-28T15:40:51;9.00;81.90
15656;DHT22;7928;43.614;1.456;2023-02-28T15:43:35;9.00;81.10
15656;DHT22;7928;43.614;1.456;2023-02-28T15:46:03;8.90;81.10
15656;DHT22;7928;43.614;1.456;2023-02-28T15:48:34;8.50;81.10
15656;DHT22;7928;43.614;1.456;2023-02-28T15:51:06;8.20;81.90
15656;DHT22;7928;43.614;1.456;2023-02-28T15:53:37;7.80;83.00
15656;DHT22;7928;43.614;1.456;2023-02-28T15:56:12;7.70;83.50
15656;DHT22;7928;43.614;1.456;2023-02-28T15:58:43;7.90;85.00
15656;DHT22;7928;43.614;1.456;2023-02-28T16:01:23;8.10;85.70
15656;DHT22;7928;43.614;1.456;2023-02-28T16:03:53;8.00;85.00
15656;DHT22;7928;43.614;1.456;2023-02-28T16:06:35;7.80;85.30
15656;DHT22;7928;43.614;1.456;2023-02-28T16:09:05;8.00;87.40
15656;DHT22;7928;43.614;1.456;2023-02-28T16:11:34;7.90;85.60
15656;DHT22;7928;43.614;1.456;2023-02-28T16:14:03;7.90;85.90
15656;DHT22;7928;43.614;1.456;2023-02-28T16:16:31;7.80;86.20
15656;DHT22;7928;43.614;1.456;2023-02-28T16:18:59;7.70;86.20
15656;DHT22;7928;43.614;1.456;2023-02-28T16:21:26;7.70;87.50
15656;DHT22;7928;43.614;1.456;2023-02-28T16:23:53;7.70;86.10
15656;DHT22;7928;43.614;1.456;2023-02-28T16:26:24;7.50;86.00
15656;DHT22;7928;43.614;1.456;2023-02-28T16:28:52;7.40;87.10
15656;DHT22;7928;43.614;1.456;2023-02-28T16:31:20;7.40;87.10
15656;DHT22;7928;43.614;1.456;2023-02-28T16:33:47;7.20;87.50
15656;DHT22;7928;43.614;1.456;2023-02-28T16:36:16;7.30;88.90
15656;DHT22;7928;43.614;1.456;2023-02-28T16:38:43;7.30;89.10
15656;DHT22;7928;43.614;1.456;2023-02-28T16:41:13;7.30;88.80
15656;DHT22;7928;43.614;1.456;2023-02-28T16:43:46;7.30;89.70
15656;DHT22;7928;43.614;1.456;2023-02-28T16:46:15;7.30;90.20
15656;DHT22;7928;43.614;1.456;2023-02-28T16:48:42;7.20;90.10
15656;DHT22;7928;43.614;1.456;2023-02-28T16:51:13;7.20;90.60
15656;DHT22;7928;43.614;1.456;2023-02-28T16:53:41;7.20;90.90
15656;DHT22;7928;43.614;1.456;2023-02-28T16:56:15;7.10;90.60
15656;DHT22;7928;43.614;1.456;2023-02-28T16:58:42;7.20;90.70
15656;DHT22;7928;43.614;1.456;2023-02-28T17:01:11;7.10;91.10
15656;DHT22;7928;43.614;1.456;2023-02-28T17:03:38;7.10;91.20
15656;DHT22;7928;43.614;1.456;2023-02-28T17:06:06;7.10;91.20